sensor_id;sensor_type;location;lat;lon;timestamp;pressure;altitude;pressure_sealevel;temperature;humidity
50682;BME280;36779;52.168;20.878;2022-09-12T00:00:06;100026.83;;;11.10;65.78
50682;BME280;36779;52.168;20.878;2022-09-12T00:02:59;100024.81;;;11.06;65.71
50682;BME280;36779;52.168;20.878;2022-09-12T00:05:27;100024.17;;;11.01;65.69
50682;BME280;36779;52.168;20.878;2022-09-12T00:07:58;100022.16;;;10.97;65.76
50682;BME280;36779;52.168;20.878;2022-09-12T00:10:27;100022.89;;;10.95;65.71
50682;BME280;36779;52.168;20.878;2022-09-12T00:12:55;100024.20;;;10.93;65.81
50682;BME280;36779;52.168;20.878;2022-09-12T00:15:24;100028.52;;;10.92;65.91
50682;BME280;36779;52.168;20.878;2022-09-12T00:17:52;100021.80;;;10.92;65.94
50682;BME280;36779;52.168;20.878;2022-09-12T00:20:21;100026.92;;;10.89;65.93
50682;BME280;36779;52.168;20.878;2022-09-12T00:22:49;100022.83;;;10.86;66.03
50682;BME280;36779;52.168;20.878;2022-09-12T00:25:18;100021.61;;;10.82;65.96
50682;BME280;36779;52.168;20.878;2022-09-12T00:27:46;100023.17;;;10.79;66.00
50682;BME280;36779;52.168;20.878;2022-09-12T00:30:15;100023.68;;;10.78;65.98
50682;BME280;36779;52.168;20.878;2022-09-12T00:32:43;100025.25;;;10.80;66.10
50682;BME280;36779;52.168;20.878;2022-09-12T00:35:12;100028.02;;;10.79;66.02
50682;BME280;36779;52.168;20.878;2022-09-12T00:37:40;100025.23;;;10.76;65.95
50682;BME280;36779;52.168;20.878;2022-09-12T00:40:10;100021.75;;;10.73;66.08
50682;BME280;36779;52.168;20.878;2022-09-12T00:42:40;100023.02;;;10.72;66.16
50682;BME280;36779;52.168;20.878;2022-09-12T00:45:22;100021.27;;;10.67;66.02
50682;BME280;36779;52.168;20.878;2022-09-12T00:47:51;100021.04;;;10.62;66.08
50682;BME280;36779;52.168;20.878;2022-09-12T00:50:20;100021.80;;;10.57;66.17
50682;BME280;36779;52.168;20.878;2022-09-12T00:52:51;100020.04;;;10.50;66.09
50682;BME280;36779;52.168;20.878;2022-09-12T00:55:22;100022.52;;;10.46;66.05
50682;BME280;36779;52.168;20.878;2022-09-12T00:57:54;100020.77;;;10.41;66.08
50682;BME280;36779;52.168;20.878;2022-09-12T01:00:26;100022.14;;;10.36;66.11
50682;BME280;36779;52.168;20.878;2022-09-12T01:02:59;100023.73;;;10.33;66.14
50682;BME280;36779;52.168;20.878;2022-09-12T01:05:29;100025.94;;;10.28;66.10
50682;BME280;36779;52.168;20.878;2022-09-12T01:08:00;100024.23;;;10.21;66.19
50682;BME280;36779;52.168;20.878;2022-09-12T01:10:34;100030.03;;;10.16;66.20
50682;BME280;36779;52.168;20.878;2022-09-12T01:13:06;100033.98;;;10.09;66.15
50682;BME280;36779;52.168;20.878;2022-09-12T01:15:37;100035.33;;;10.06;66.22
50682;BME280;36779;52.168;20.878;2022-09-12T01:18:15;100035.09;;;10.04;66.25
50682;BME280;36779;52.168;20.878;2022-09-12T01:21:00;100031.34;;;9.99;66.09
50682;BME280;36779;52.168;20.878;2022-09-12T01:26:58;100032.73;;;9.91;66.30
50682;BME280;36779;52.168;20.878;2022-09-12T01:29:50;100039.27;;;9.85;66.41
50682;BME280;36779;52.168;20.878;2022-09-12T01:32:30;100041.42;;;9.80;66.37
50682;BME280;36779;52.168;20.878;2022-09-12T01:35:11;100041.73;;;9.72;66.39
50682;BME280;36779;52.168;20.878;2022-09-12T01:37:49;100041.10;;;9.66;66.44
50682;BME280;36779;52.168;20.878;2022-09-12T01:40:25;100039.27;;;9.65;66.62
50682;BME280;36779;52.168;20.878;2022-09-12T01:43:03;100041.30;;;9.66;66.56
50682;BME280;36779;52.168;20.878;2022-09-12T01:45:39;100044.73;;;9.64;66.59
50682;BME280;36779;52.168;20.878;2022-09-12T01:48:16;100048.67;;;9.62;66.68
50682;BME280;36779;52.168;20.878;2022-09-12T01:50:51;100052.84;;;9.59;66.66
50682;BME280;36779;52.168;20.878;2022-09-12T01:53:26;100053.20;;;9.57;66.73
50682;BME280;36779;52.168;20.878;2022-09-12T01:56:01;100051.52;;;9.57;66.91
50682;BME280;36779;52.168;20.878;2022-09-12T01:58:37;100051.44;;;9.57;66.96
50682;BME280;36779;52.168;20.878;2022-09-12T02:01:13;100053.94;;;9.59;66.86
50682;BME280;36779;52.168;20.878;2022-09-12T02:03:45;100051.38;;;9.60;66.90
50682;BME280;36779;52.168;20.878;2022-09-12T02:06:26;100053.06;;;9.59;66.84
50682;BME280;36779;52.168;20.878;2022-09-12T02:09:02;100054.20;;;9.58;67.04
50682;BME280;36779;52.168;20.878;2022-09-12T02:11:34;100051.14;;;9.59;66.98
50682;BME280;36779;52.168;20.878;2022-09-12T02:14:10;100053.41;;;9.57;67.05
50682;BME280;36779;52.168;20.878;2022-09-12T02:16:47;100046.48;;;9.58;67.14
50682;BME280;36779;52.168;20.878;2022-09-12T02:19:19;100053.70;;;9.59;67.08
50682;BME280;36779;52.168;20.878;2022-09-12T02:21:51;100052.77;;;9.61;67.23
50682;BME280;36779;52.168;20.878;2022-09-12T02:24:24;100059.64;;;9.63;67.18
50682;BME280;36779;52.168;20.878;2022-09-12T02:26:55;100059.87;;;9.63;67.30
50682;BME280;36779;52.168;20.878;2022-09-12T02:29:25;100060.06;;;9.63;67.14
50682;BME280;36779;52.168;20.878;2022-09-12T02:31:58;100064.02;;;9.62;67.25
50682;BME280;36779;52.168;20.878;2022-09-12T02:34:34;100061.56;;;9.62;67.33
50682;BME280;36779;52.168;20.878;2022-09-12T02:37:15;100062.39;;;9.59;67.19
50682;BME280;36779;52.168;20.878;2022-09-12T02:39:45;100064.63;;;9.60;67.34
50682;BME280;36779;52.168;20.878;2022-09-12T02:42:14;100062.83;;;9.62;67.38
50682;BME280;36779;52.168;20.878;2022-09-12T02:44:43;100067.71;;;9.64;67.47
50682;BME280;36779;52.168;20.878;2022-09-12T02:47:16;100069.48;;;9.64;67.37
50682;BME280;36779;52.168;20.878;2022-09-12T02:49:46;100070.75;;;9.64;67.45
50682;BME280;36779;52.168;20.878;2022-09-12T02:52:15;100067.44;;;9.65;67.48
50682;BME280;36779;52.168;20.878;2022-09-12T02:54:44;100070.34;;;9.65;67.53
50682;BME280;36779;52.168;20.878;2022-09-12T02:57:16;100068.21;;;9.63;67.46
50682;BME280;36779;52.168;20.878;2022-09-12T02:59:52;100071.46;;;9.61;67.50
50682;BME280;36779;52.168;20.878;2022-09-12T03:02:28;100071.28;;;9.62;67.58
50682;BME280;36779;52.168;20.878;2022-09-12T03:05:21;100068.45;;;9.64;67.63
50682;BME280;36779;52.168;20.878;2022-09-12T03:08:07;100072.11;;;9.66;67.59
50682;BME280;36779;52.168;20.878;2022-09-12T03:10:54;100076.90;;;9.68;67.57
50682;BME280;36779;52.168;20.878;2022-09-12T03:13:34;100079.86;;;9.67;67.69
50682;BME280;36779;52.168;20.878;2022-09-12T03:16:16;100083.63;;;9.65;67.76
50682;BME280;36779;52.168;20.878;2022-09-12T03:18:52;100083.92;;;9.64;67.66
50682;BME280;36779;52.168;20.878;2022-09-12T03:21:28;100088.98;;;9.63;67.76
50682;BME280;36779;52.168;20.878;2022-09-12T03:24:10;100089.29;;;9.64;67.77
50682;BME280;36779;52.168;20.878;2022-09-12T03:26:43;100091.11;;;9.66;67.84
50682;BME280;36779;52.168;20.878;2022-09-12T03:29:15;100089.05;;;9.69;67.77
50682;BME280;36779;52.168;20.878;2022-09-12T03:31:51;100096.80;;;9.73;67.88
50682;BME280;36779;52.168;20.878;2022-09-12T03:34:21;100100.23;;;9.76;67.86
50682;BME280;36779;52.168;20.878;2022-09-12T03:36:50;100106.71;;;9.82;68.05
50682;BME280;36779;52.168;20.878;2022-09-12T03:39:19;100107.28;;;9.88;68.09
50682;BME280;36779;52.168;20.878;2022-09-12T03:41:48;100108.82;;;9.90;68.10
50682;BME280;36779;52.168;20.878;2022-09-12T03:44:16;100112.88;;;9.88;67.94
50682;BME280;36779;52.168;20.878;2022-09-12T03:46:48;100111.10;;;9.84;67.88
50682;BME280;36779;52.168;20.878;2022-09-12T03:49:17;100110.27;;;9.80;68.03
50682;BME280;36779;52.168;20.878;2022-09-12T03:51:45;100116.25;;;9.80;67.98
50682;BME280;36779;52.168;20.878;2022-09-12T03:54:13;100114.95;;;9.81;68.19
50682;BME280;36779;52.168;20.878;2022-09-12T03:56:42;100114.77;;;9.84;68.11
50682;BME280;36779;52.168;20.878;2022-09-12T03:59:10;100119.73;;;9.84;68.09
50682;BME280;36779;52.168;20.878;2022-09-12T04:01:40;100121.96;;;9.85;68.02
50682;BME280;36779;52.168;20.878;2022-09-12T04:04:09;100114.90;;;9.89;68.22
50682;BME280;36779;52.168;20.878;2022-09-12T04:06:37;100115.86;;;9.89;68.13
50682;BME280;36779;52.168;20.878;2022-09-12T04:09:05;100122.29;;;9.88;68.11
50682;BME280;36779;52.168;20.878;2022-09-12T04:11:38;100124.80;;;9.87;68.13
50682;BME280;36779;52.168;20.878;2022-09-12T04:14:06;100112.84;;;9.84;68.21
50682;BME280;36779;52.168;20.878;2022-09-12T04:16:36;100118.13;;;9.84;68.30
50682;BME280;36779;52.168;20.878;2022-09-12T04:19:05;100127.14;;;9.82;68.20
50682;BME280;36779;52.168;20.878;2022-09-12T04:21:33;100132.29;;;9.78;68.05
50682;BME280;36779;52.168;20.878;2022-09-12T04:24:02;100135.02;;;9.78;68.26
50682;BME280;36779;52.168;20.878;2022-09-12T04:26:30;100139.27;;;9.79;68.14
50682;BME280;36779;52.168;20.878;2022-09-12T04:28:58;100139.58;;;9.81;68.26
50682;BME280;36779;52.168;20.878;2022-09-12T04:31:28;100140.38;;;9.84;68.21
50682;BME280;36779;52.168;20.878;2022-09-12T04:33:59;100136.49;;;9.82;68.29
50682;BME280;36779;52.168;20.878;2022-09-12T04:36:29;100131.40;;;9.78;68.26
50682;BME280;36779;52.168;20.878;2022-09-12T04:38:58;100130.92;;;9.74;68.31
50682;BME280;36779;52.168;20.878;2022-09-12T04:41:30;100129.22;;;9.71;68.27
50682;BME280;36779;52.168;20.878;2022-09-12T04:44:00;100132.27;;;9.70;68.42
50682;BME280;36779;52.168;20.878;2022-09-12T04:46:33;100146.98;;;9.70;68.23
50682;BME280;36779;52.168;20.878;2022-09-12T04:49:04;100144.19;;;9.70;68.38
50682;BME280;36779;52.168;20.878;2022-09-12T04:51:34;100139.49;;;9.72;68.26
50682;BME280;36779;52.168;20.878;2022-09-12T04:54:06;100144.02;;;9.76;68.51
50682;BME280;36779;52.168;20.878;2022-09-12T04:56:38;100141.77;;;9.77;68.50
50682;BME280;36779;52.168;20.878;2022-09-12T04:59:07;100141.40;;;9.78;68.48
50682;BME280;36779;52.168;20.878;2022-09-12T05:01:37;100142.91;;;9.73;68.44
50682;BME280;36779;52.168;20.878;2022-09-12T05:04:06;100141.69;;;9.73;68.48
50682;BME280;36779;52.168;20.878;2022-09-12T05:06:36;100143.55;;;9.72;68.54
50682;BME280;36779;52.168;20.878;2022-09-12T05:09:06;100146.48;;;9.72;68.49
50682;BME280;36779;52.168;20.878;2022-09-12T05:11:38;100147.27;;;9.74;68.62
50682;BME280;36779;52.168;20.878;2022-09-12T05:14:27;100152.31;;;9.75;68.61
50682;BME280;36779;52.168;20.878;2022-09-12T05:16:55;100158.84;;;9.74;68.49
50682;BME280;36779;52.168;20.878;2022-09-12T05:19:28;100156.70;;;9.76;68.65
50682;BME280;36779;52.168;20.878;2022-09-12T05:21:57;100154.59;;;9.77;68.62
50682;BME280;36779;52.168;20.878;2022-09-12T05:24:27;100158.29;;;9.76;68.64
50682;BME280;36779;52.168;20.878;2022-09-12T05:26:55;100157.70;;;9.75;68.68
50682;BME280;36779;52.168;20.878;2022-09-12T05:29:24;100164.92;;;9.75;68.75
50682;BME280;36779;52.168;20.878;2022-09-12T05:31:52;100172.68;;;9.74;68.69
50682;BME280;36779;52.168;20.878;2022-09-12T05:34:22;100172.08;;;9.74;68.62
50682;BME280;36779;52.168;20.878;2022-09-12T05:36:50;100170.98;;;9.73;68.65
50682;BME280;36779;52.168;20.878;2022-09-12T05:39:18;100175.64;;;9.74;68.74
50682;BME280;36779;52.168;20.878;2022-09-12T05:41:47;100172.34;;;9.75;68.75
50682;BME280;36779;52.168;20.878;2022-09-12T05:44:15;100174.51;;;9.75;68.87
50682;BME280;36779;52.168;20.878;2022-09-12T05:46:44;100176.51;;;9.76;68.92
50682;BME280;36779;52.168;20.878;2022-09-12T05:49:15;100179.70;;;9.78;68.84
50682;BME280;36779;52.168;20.878;2022-09-12T05:51:45;100177.02;;;9.78;68.90
50682;BME280;36779;52.168;20.878;2022-09-12T05:54:15;100176.32;;;9.80;68.95
50682;BME280;36779;52.168;20.878;2022-09-12T05:56:46;100180.15;;;9.83;68.99
50682;BME280;36779;52.168;20.878;2022-09-12T05:59:17;100180.41;;;9.88;69.04
50682;BME280;36779;52.168;20.878;2022-09-12T06:01:46;100183.27;;;9.93;68.90
50682;BME280;36779;52.168;20.878;2022-09-12T06:04:15;100177.65;;;9.95;68.98
50682;BME280;36779;52.168;20.878;2022-09-12T06:06:45;100178.73;;;9.99;69.09
50682;BME280;36779;52.168;20.878;2022-09-12T06:09:14;100176.16;;;10.03;69.05
50682;BME280;36779;52.168;20.878;2022-09-12T06:11:44;100171.02;;;10.04;69.18
50682;BME280;36779;52.168;20.878;2022-09-12T06:14:15;100173.68;;;10.04;68.95
50682;BME280;36779;52.168;20.878;2022-09-12T06:16:44;100173.61;;;10.03;69.00
50682;BME280;36779;52.168;20.878;2022-09-12T06:19:15;100175.19;;;10.07;68.95
50682;BME280;36779;52.168;20.878;2022-09-12T06:21:44;100173.85;;;10.07;69.04
50682;BME280;36779;52.168;20.878;2022-09-12T06:24:13;100174.16;;;10.11;69.10
50682;BME280;36779;52.168;20.878;2022-09-12T06:26:41;100177.26;;;10.16;69.08
50682;BME280;36779;52.168;20.878;2022-09-12T06:29:10;100180.05;;;10.16;69.03
50682;BME280;36779;52.168;20.878;2022-09-12T06:31:42;100178.81;;;10.16;69.00
50682;BME280;36779;52.168;20.878;2022-09-12T06:34:14;100181.29;;;10.14;69.09
50682;BME280;36779;52.168;20.878;2022-09-12T06:36:44;100181.76;;;10.17;69.20
50682;BME280;36779;52.168;20.878;2022-09-12T06:39:16;100183.48;;;10.21;69.19
50682;BME280;36779;52.168;20.878;2022-09-12T06:41:45;100184.12;;;10.25;69.25
50682;BME280;36779;52.168;20.878;2022-09-12T06:44:15;100184.23;;;10.31;69.28
50682;BME280;36779;52.168;20.878;2022-09-12T06:46:45;100183.75;;;10.37;69.27
50682;BME280;36779;52.168;20.878;2022-09-12T06:49:13;100185.05;;;10.40;69.13
50682;BME280;36779;52.168;20.878;2022-09-12T06:51:42;100180.17;;;10.43;69.28
50682;BME280;36779;52.168;20.878;2022-09-12T06:54:15;100182.88;;;10.48;69.33
50682;BME280;36779;52.168;20.878;2022-09-12T06:56:45;100177.48;;;10.52;69.44
50682;BME280;36779;52.168;20.878;2022-09-12T06:59:13;100181.54;;;10.59;69.46
50682;BME280;36779;52.168;20.878;2022-09-12T07:01:42;100182.67;;;10.68;69.51
50682;BME280;36779;52.168;20.878;2022-09-12T07:04:11;100184.19;;;10.76;69.48
50682;BME280;36779;52.168;20.878;2022-09-12T07:06:41;100186.27;;;10.82;69.42
50682;BME280;36779;52.168;20.878;2022-09-12T07:09:13;100190.79;;;10.84;69.35
50682;BME280;36779;52.168;20.878;2022-09-12T07:11:44;100190.35;;;10.87;69.36
50682;BME280;36779;52.168;20.878;2022-09-12T07:14:14;100193.19;;;10.87;69.42
50682;BME280;36779;52.168;20.878;2022-09-12T07:16:42;100192.15;;;10.92;69.49
50682;BME280;36779;52.168;20.878;2022-09-12T07:19:12;100192.73;;;10.99;69.73
50682;BME280;36779;52.168;20.878;2022-09-12T07:21:41;100196.81;;;11.07;69.66
50682;BME280;36779;52.168;20.878;2022-09-12T07:24:10;100200.14;;;11.14;69.63
50682;BME280;36779;52.168;20.878;2022-09-12T07:26:40;100203.60;;;11.17;69.57
50682;BME280;36779;52.168;20.878;2022-09-12T07:29:13;100204.09;;;11.20;69.68
50682;BME280;36779;52.168;20.878;2022-09-12T07:32:04;100204.81;;;11.28;69.59
50682;BME280;36779;52.168;20.878;2022-09-12T07:34:33;100210.39;;;11.34;69.64
50682;BME280;36779;52.168;20.878;2022-09-12T07:37:02;100209.77;;;11.39;69.72
50682;BME280;36779;52.168;20.878;2022-09-12T07:39:31;100214.30;;;11.45;69.64
50682;BME280;36779;52.168;20.878;2022-09-12T07:41:59;100218.39;;;11.48;69.54
50682;BME280;36779;52.168;20.878;2022-09-12T07:44:29;100221.33;;;11.49;69.56
50682;BME280;36779;52.168;20.878;2022-09-12T07:46:59;100225.92;;;11.49;69.48
50682;BME280;36779;52.168;20.878;2022-09-12T07:49:28;100227.41;;;11.45;69.52
50682;BME280;36779;52.168;20.878;2022-09-12T07:51:57;100232.18;;;11.42;69.50
50682;BME280;36779;52.168;20.878;2022-09-12T07:54:28;100235.48;;;11.40;69.32
50682;BME280;36779;52.168;20.878;2022-09-12T07:56:56;100237.57;;;11.41;69.61
50682;BME280;36779;52.168;20.878;2022-09-12T07:59:25;100230.89;;;11.45;69.74
50682;BME280;36779;52.168;20.878;2022-09-12T08:02:15;100235.36;;;11.51;69.60
50682;BME280;36779;52.168;20.878;2022-09-12T08:04:46;100236.91;;;11.46;69.58
50682;BME280;36779;52.168;20.878;2022-09-12T08:07:15;100239.99;;;11.44;69.76
50682;BME280;36779;52.168;20.878;2022-09-12T08:09:46;100242.80;;;11.45;69.80
50682;BME280;36779;52.168;20.878;2022-09-12T08:12:15;100239.77;;;11.55;70.18
50682;BME280;36779;52.168;20.878;2022-09-12T08:14:44;100243.70;;;11.64;69.81
50682;BME280;36779;52.168;20.878;2022-09-12T08:17:15;100241.59;;;11.68;69.89
50682;BME280;36779;52.168;20.878;2022-09-12T08:19:44;100245.30;;;11.72;69.68
50682;BME280;36779;52.168;20.878;2022-09-12T08:22:15;100246.37;;;11.72;69.71
50682;BME280;36779;52.168;20.878;2022-09-12T08:24:45;100246.32;;;11.71;69.75
50682;BME280;36779;52.168;20.878;2022-09-12T08:27:14;100250.55;;;11.69;69.77
50682;BME280;36779;52.168;20.878;2022-09-12T08:29:43;100249.50;;;11.68;69.82
50682;BME280;36779;52.168;20.878;2022-09-12T08:32:14;100250.86;;;11.68;69.89
50682;BME280;36779;52.168;20.878;2022-09-12T08:34:43;100251.79;;;11.71;69.82
50682;BME280;36779;52.168;20.878;2022-09-12T08:37:13;100253.27;;;11.72;69.88
50682;BME280;36779;52.168;20.878;2022-09-12T08:39:45;100251.85;;;11.72;69.84
50682;BME280;36779;52.168;20.878;2022-09-12T08:42:23;100253.89;;;11.76;69.86
50682;BME280;36779;52.168;20.878;2022-09-12T08:45:07;100254.81;;;11.82;69.77
50682;BME280;36779;52.168;20.878;2022-09-12T08:47:40;100255.26;;;11.85;69.96
50682;BME280;36779;52.168;20.878;2022-09-12T08:50:16;100253.77;;;11.91;70.15
50682;BME280;36779;52.168;20.878;2022-09-12T08:52:51;100250.20;;;11.93;69.95
50682;BME280;36779;52.168;20.878;2022-09-12T08:55:31;100251.23;;;11.94;69.94
50682;BME280;36779;52.168;20.878;2022-09-12T08:58:05;100250.48;;;11.98;70.10
50682;BME280;36779;52.168;20.878;2022-09-12T09:00:42;100256.73;;;12.03;70.10
50682;BME280;36779;52.168;20.878;2022-09-12T09:06:22;100262.09;;;12.11;69.87
50682;BME280;36779;52.168;20.878;2022-09-12T09:09:02;100261.95;;;12.11;69.82
50682;BME280;36779;52.168;20.878;2022-09-12T09:11:42;100256.08;;;12.11;69.86
50682;BME280;36779;52.168;20.878;2022-09-12T09:14:27;100254.21;;;12.17;70.02
50682;BME280;36779;52.168;20.878;2022-09-12T09:17:22;100257.93;;;12.25;70.19
50682;BME280;36779;52.168;20.878;2022-09-12T09:19:58;100257.73;;;12.32;69.85
50682;BME280;36779;52.168;20.878;2022-09-12T09:22:39;100258.93;;;12.34;69.89
50682;BME280;36779;52.168;20.878;2022-09-12T09:25:16;100263.48;;;12.36;70.07
50682;BME280;36779;52.168;20.878;2022-09-12T09:27:55;100262.17;;;12.38;70.00
50682;BME280;36779;52.168;20.878;2022-09-12T09:30:25;100259.83;;;12.40;69.97
50682;BME280;36779;52.168;20.878;2022-09-12T09:32:58;100264.86;;;12.44;70.14
50682;BME280;36779;52.168;20.878;2022-09-12T09:35:39;100266.46;;;12.50;69.99
50682;BME280;36779;52.168;20.878;2022-09-12T09:38:22;100266.36;;;12.56;70.12
50682;BME280;36779;52.168;20.878;2022-09-12T09:41:00;100269.17;;;12.61;70.00
50682;BME280;36779;52.168;20.878;2022-09-12T09:43:32;100269.25;;;12.68;70.16
50682;BME280;36779;52.168;20.878;2022-09-12T09:46:01;100271.70;;;12.74;69.91
50682;BME280;36779;52.168;20.878;2022-09-12T09:48:30;100274.08;;;12.77;69.75
50682;BME280;36779;52.168;20.878;2022-09-12T09:51:02;100274.54;;;12.76;69.70
50682;BME280;36779;52.168;20.878;2022-09-12T09:53:36;100274.90;;;12.76;69.73
50682;BME280;36779;52.168;20.878;2022-09-12T09:56:10;100277.81;;;12.75;69.69
50682;BME280;36779;52.168;20.878;2022-09-12T09:58:40;100281.27;;;12.75;69.64
50682;BME280;36779;52.168;20.878;2022-09-12T10:01:14;100279.95;;;12.75;69.75
50682;BME280;36779;52.168;20.878;2022-09-12T10:03:51;100282.57;;;12.79;69.94
50682;BME280;36779;52.168;20.878;2022-09-12T10:06:27;100283.70;;;12.87;69.97
50682;BME280;36779;52.168;20.878;2022-09-12T10:09:17;100288.18;;;12.96;69.84
50682;BME280;36779;52.168;20.878;2022-09-12T10:11:46;100289.34;;;13.03;69.97
50682;BME280;36779;52.168;20.878;2022-09-12T10:14:30;100292.84;;;13.01;69.85
50682;BME280;36779;52.168;20.878;2022-09-12T10:16:59;100292.98;;;13.00;69.78
50682;BME280;36779;52.168;20.878;2022-09-12T10:19:34;100294.92;;;13.00;69.87
50682;BME280;36779;52.168;20.878;2022-09-12T10:22:04;100298.59;;;12.99;69.66
50682;BME280;36779;52.168;20.878;2022-09-12T10:24:36;100299.40;;;12.95;69.69
50682;BME280;36779;52.168;20.878;2022-09-12T10:27:14;100303.27;;;12.95;69.72
50682;BME280;36779;52.168;20.878;2022-09-12T10:29:44;100305.12;;;12.95;69.81
50682;BME280;36779;52.168;20.878;2022-09-12T10:32:23;100301.62;;;12.94;69.66
50682;BME280;36779;52.168;20.878;2022-09-12T10:35:00;100305.98;;;12.99;69.82
50682;BME280;36779;52.168;20.878;2022-09-12T10:37:31;100308.11;;;13.02;69.77
50682;BME280;36779;52.168;20.878;2022-09-12T10:40:02;100308.81;;;13.02;69.82
50682;BME280;36779;52.168;20.878;2022-09-12T10:42:50;100308.59;;;13.05;69.65
50682;BME280;36779;52.168;20.878;2022-09-12T10:45:25;100309.52;;;13.14;69.98
50682;BME280;36779;52.168;20.878;2022-09-12T10:47:55;100314.21;;;13.19;69.98
50682;BME280;36779;52.168;20.878;2022-09-12T10:50:31;100313.61;;;13.25;69.80
50682;BME280;36779;52.168;20.878;2022-09-12T10:53:17;100320.39;;;13.30;69.68
50682;BME280;36779;52.168;20.878;2022-09-12T10:56:06;100319.48;;;13.34;69.55
50682;BME280;36779;52.168;20.878;2022-09-12T10:58:45;100325.06;;;13.38;69.64
50682;BME280;36779;52.168;20.878;2022-09-12T11:01:39;100322.64;;;13.42;69.76
50682;BME280;36779;52.168;20.878;2022-09-12T11:04:42;100318.83;;;13.46;69.88
50682;BME280;36779;52.168;20.878;2022-09-12T11:07:42;100323.85;;;13.50;69.75
50682;BME280;36779;52.168;20.878;2022-09-12T11:10:23;100322.66;;;13.49;69.62
50682;BME280;36779;52.168;20.878;2022-09-12T11:13:12;100324.02;;;13.53;69.55
50682;BME280;36779;52.168;20.878;2022-09-12T11:15:57;100327.14;;;13.57;69.66
50682;BME280;36779;52.168;20.878;2022-09-12T11:18:43;100324.58;;;13.63;69.71
50682;BME280;36779;52.168;20.878;2022-09-12T11:21:27;100325.05;;;13.68;69.78
50682;BME280;36779;52.168;20.878;2022-09-12T11:27:02;100319.42;;;13.79;69.56
50682;BME280;36779;52.168;20.878;2022-09-12T11:29:46;100323.20;;;13.82;69.40
50682;BME280;36779;52.168;20.878;2022-09-12T11:35:21;100323.91;;;13.86;69.40
50682;BME280;36779;52.168;20.878;2022-09-12T11:38:07;100320.55;;;13.87;69.42
50682;BME280;36779;52.168;20.878;2022-09-12T11:40:46;100323.23;;;13.91;69.35
50682;BME280;36779;52.168;20.878;2022-09-12T11:43:26;100324.63;;;13.94;69.52
50682;BME280;36779;52.168;20.878;2022-09-12T11:46:00;100322.38;;;13.95;69.57
50682;BME280;36779;52.168;20.878;2022-09-12T11:48:40;100326.39;;;13.96;69.38
50682;BME280;36779;52.168;20.878;2022-09-12T11:51:17;100325.92;;;13.92;69.36
50682;BME280;36779;52.168;20.878;2022-09-12T11:53:58;100328.55;;;13.91;69.28
50682;BME280;36779;52.168;20.878;2022-09-12T11:56:28;100333.50;;;13.90;69.36
50682;BME280;36779;52.168;20.878;2022-09-12T11:59:02;100333.06;;;13.89;69.17
50682;BME280;36779;52.168;20.878;2022-09-12T12:01:39;100336.54;;;13.87;69.08
50682;BME280;36779;52.168;20.878;2022-09-12T12:04:19;100331.74;;;13.84;68.91
50682;BME280;36779;52.168;20.878;2022-09-12T12:06:54;100331.05;;;13.82;69.18
50682;BME280;36779;52.168;20.878;2022-09-12T12:09:25;100333.98;;;13.86;69.54
50682;BME280;36779;52.168;20.878;2022-09-12T12:11:55;100332.47;;;13.91;69.25
50682;BME280;36779;52.168;20.878;2022-09-12T12:14:29;100330.13;;;13.95;69.13
50682;BME280;36779;52.168;20.878;2022-09-12T12:17:00;100331.52;;;13.93;69.19
50682;BME280;36779;52.168;20.878;2022-09-12T12:19:33;100332.44;;;13.91;69.09
50682;BME280;36779;52.168;20.878;2022-09-12T12:22:07;100335.24;;;13.89;69.03
50682;BME280;36779;52.168;20.878;2022-09-12T12:25:00;100337.55;;;13.86;69.09
50682;BME280;36779;52.168;20.878;2022-09-12T12:27:45;100337.58;;;13.84;69.17
50682;BME280;36779;52.168;20.878;2022-09-12T12:36:42;100335.48;;;14.00;69.13
50682;BME280;36779;52.168;20.878;2022-09-12T12:46:01;100337.11;;;14.04;69.01
50682;BME280;36779;52.168;20.878;2022-09-12T12:51:59;100337.58;;;14.09;68.92
50682;BME280;36779;52.168;20.878;2022-09-12T12:57:21;100343.77;;;14.05;68.87
50682;BME280;36779;52.168;20.878;2022-09-12T12:59:52;100343.59;;;14.05;68.81
50682;BME280;36779;52.168;20.878;2022-09-12T13:02:26;100342.34;;;14.04;68.90
50682;BME280;36779;52.168;20.878;2022-09-12T13:04:56;100344.05;;;14.03;68.75
50682;BME280;36779;52.168;20.878;2022-09-12T13:07:31;100345.48;;;14.02;68.95
50682;BME280;36779;52.168;20.878;2022-09-12T13:10:02;100344.98;;;14.00;69.03
50682;BME280;36779;52.168;20.878;2022-09-12T13:12:34;100344.66;;;14.00;68.76
50682;BME280;36779;52.168;20.878;2022-09-12T13:15:27;100346.20;;;14.03;68.92
50682;BME280;36779;52.168;20.878;2022-09-12T13:17:58;100348.25;;;14.05;68.97
50682;BME280;36779;52.168;20.878;2022-09-12T13:20:34;100346.10;;;14.07;68.97
50682;BME280;36779;52.168;20.878;2022-09-12T13:23:18;100348.92;;;14.09;68.97
50682;BME280;36779;52.168;20.878;2022-09-12T13:25:53;100345.52;;;14.10;68.81
50682;BME280;36779;52.168;20.878;2022-09-12T13:28:23;100345.61;;;14.11;68.82
50682;BME280;36779;52.168;20.878;2022-09-12T13:30:59;100346.42;;;14.13;68.64
50682;BME280;36779;52.168;20.878;2022-09-12T13:33:38;100348.45;;;14.17;68.69
50682;BME280;36779;52.168;20.878;2022-09-12T13:36:27;100353.50;;;14.22;68.94
50682;BME280;36779;52.168;20.878;2022-09-12T13:39:14;100344.27;;;14.29;68.94
50682;BME280;36779;52.168;20.878;2022-09-12T13:42:15;100345.06;;;14.36;68.87
50682;BME280;36779;52.168;20.878;2022-09-12T13:44:52;100344.45;;;14.40;68.68
50682;BME280;36779;52.168;20.878;2022-09-12T13:47:25;100344.10;;;14.42;68.90